Time;durP1;ratioP1;P1;durP2;ratioP2;P2;SDS_P1;SDS_P2;PMS_P1;PMS_P2;Temp;Humidity;BMP_temperature;BMP_pressure;BME280_temperature;BME280_humidity;BME280_pressure;Samples;Min_cycle;Max_cycle;Signal;HPM_P1;HPM_P2
2022/01/12 00:02:07;;;;;;;5.80;4.60;;;-3275.70;56.70;;;;;;6321606;28;20202;-62
2022/01/12 00:05:08;;;;;;;5.33;3.90;;;-3275.60;57.30;;;;;;6281725;28;20280;-63
2022/01/12 00:08:09;;;;;;;5.70;3.60;;;-3275.50;57.50;;;;;;6306076;28;20227;-62
2022/01/12 00:11:09;;;;;;;6.23;3.77;;;-3275.50;58.10;;;;;;6324465;28;20197;-62
2022/01/12 00:14:10;;;;;;;5.80;4.00;;;-3275.40;58.70;;;;;;6310668;28;20197;-63
2022/01/12 00:17:11;;;;;;;7.57;3.57;;;-3275.30;59.20;;;;;;6344112;28;20218;-63
2022/01/12 00:20:12;;;;;;;7.23;3.90;;;-3275.20;58.90;;;;;;6333585;27;20292;-63
2022/01/12 00:23:15;;;;;;;5.87;4.30;;;-3275.20;59.00;;;;;;6332466;28;20233;-63
2022/01/12 00:33:10;;;;;;;11.30;5.00;;;-3275.10;60.00;;;;;;6313290;28;20212;-64
2022/01/12 00:36:11;;;;;;;7.30;4.70;;;-3275.20;60.20;;;;;;6312757;28;20276;-62
2022/01/12 00:39:13;;;;;;;8.70;4.33;;;-3275.10;60.40;;;;;;6310297;28;20181;-62
2022/01/12 00:42:14;;;;;;;6.87;4.10;;;-3275.00;60.80;;;;;;6309797;28;20228;-62
2022/01/12 00:45:17;;;;;;;7.63;4.60;;;-3275.00;60.60;;;;;;6310105;28;20192;-63
2022/01/12 00:48:18;;;;;;;6.57;4.40;;;-3274.80;60.90;;;;;;6293199;28;20223;-63
2022/01/12 00:51:19;;;;;;;6.50;4.00;;;-3274.90;61.70;;;;;;6329650;28;20197;-63
2022/01/12 00:54:22;;;;;;;8.37;4.67;;;-3274.80;61.80;;;;;;6301878;28;20313;-63
2022/01/12 00:57:25;;;;;;;7.00;4.47;;;-3274.80;62.30;;;;;;6341431;28;20247;-62
2022/01/12 01:00:27;;;;;;;6.33;4.47;;;-3274.70;62.50;;;;;;6300955;28;20199;-63
2022/01/12 01:03:29;;;;;;;7.73;4.27;;;-3274.70;62.50;;;;;;6352221;28;20181;-62
2022/01/12 01:06:32;;;;;;;10.00;5.30;;;-3274.60;62.70;;;;;;6349912;27;20209;-64
2022/01/12 01:09:35;;;;;;;7.20;4.93;;;-3274.70;62.60;;;;;;6330981;28;20189;-62
2022/01/12 01:12:37;;;;;;;7.77;4.97;;;-3274.60;62.80;;;;;;6343244;27;20201;-63
2022/01/12 01:15:58;;;;;;;8.67;5.60;;;-3274.50;63.30;;;;;;6310090;28;20185;-62
2022/01/12 01:25:37;;;;;;;8.30;4.50;;;-3274.40;64.00;;;;;;6334596;28;20228;-64
2022/01/12 01:28:38;;;;;;;5.00;3.67;;;-3274.30;64.20;;;;;;6277559;28;20224;-64
2022/01/12 01:31:40;;;;;;;6.77;4.00;;;-3274.30;64.20;;;;;;6329850;28;20269;-64
2022/01/12 01:34:46;;;;;;;8.20;4.83;;;-3274.30;64.60;;;;;;6316868;28;20192;-64
2022/01/12 01:37:47;;;;;;;7.20;4.30;;;-3274.30;64.90;;;;;;6333294;28;20217;-63
2022/01/12 01:40:49;;;;;;;6.73;4.40;;;-3274.20;65.10;;;;;;6350661;27;20194;-63
2022/01/12 01:44:35;;;;;;;7.63;4.10;;;-3274.20;65.10;;;;;;6300577;28;20192;-63
2022/01/12 01:53:59;;;;;;;7.43;5.07;;;-3274.10;65.50;;;;;;6333591;28;20196;-63
2022/01/12 01:57:00;;;;;;;9.37;5.00;;;-3274.00;65.80;;;;;;6321856;28;20203;-63
2022/01/12 02:00:06;;;;;;;13.87;6.40;;;-3274.10;65.90;;;;;;6317444;28;20284;-63
2022/01/12 02:03:15;;;;;;;9.30;5.60;;;-3274.00;66.00;;;;;;6329705;28;20191;-61
2022/01/12 02:06:22;;;;;;;7.70;5.13;;;-3274.00;66.10;;;;;;6338113;28;20217;-62
2022/01/12 02:09:23;;;;;;;8.57;5.37;;;-3273.90;66.30;;;;;;6324764;28;20165;-62
2022/01/12 02:12:53;;;;;;;10.77;4.93;;;-3273.80;66.60;;;;;;6286832;28;20231;-62
2022/01/12 02:15:56;;;;;;;7.60;5.23;;;-3273.90;66.90;;;;;;6277596;28;20200;-63
2022/01/12 02:35:15;;;;;;;9.57;5.30;;;-3273.70;67.80;;;;;;6318253;28;20197;-63
2022/01/12 02:35:47;;;;;;;9.50;5.70;;;-3273.60;68.40;;;;;;6311740;28;20276;-63
2022/01/12 02:42:08;;;;;;;11.23;5.90;;;-3273.40;68.80;;;;;;6292827;28;20181;-64
2022/01/12 02:55:13;;;;;;;15.37;7.73;;;-3273.30;69.60;;;;;;6322800;28;20201;-63
2022/01/12 02:58:14;;;;;;;9.93;6.03;;;-3273.40;69.90;;;;;;6331791;28;20214;-63
2022/01/12 03:04:17;;;;;;;11.10;6.20;;;-3273.40;69.90;;;;;;6330347;28;20185;-64
2022/01/12 03:07:20;;;;;;;11.60;6.87;;;-3273.30;69.80;;;;;;6312222;28;20291;-62
2022/01/12 03:10:21;;;;;;;18.17;9.43;;;-3273.20;70.10;;;;;;6323341;28;20226;-63
2022/01/12 03:13:22;;;;;;;21.07;11.20;;;-3273.20;70.40;;;;;;6323731;28;20207;-61
2022/01/12 03:16:26;;;;;;;13.07;7.00;;;-3273.20;70.70;;;;;;6312424;28;20206;-62
2022/01/12 03:19:30;;;;;;;13.87;8.03;;;-3273.20;70.90;;;;;;6298851;28;20206;-63
2022/01/12 03:22:31;;;;;;;15.90;9.37;;;-3273.10;71.20;;;;;;6322484;28;20200;-63
2022/01/12 03:25:32;;;;;;;16.97;8.23;;;-3273.20;70.50;;;;;;6304287;28;20204;-63
2022/01/12 03:28:33;;;;;;;16.17;9.57;;;-3273.10;70.60;;;;;;6306682;28;20257;-62
2022/01/12 03:31:35;;;;;;;18.43;9.03;;;-3273.00;70.90;;;;;;6294644;28;20189;-62
2022/01/12 03:34:39;;;;;;;18.17;8.87;;;-3273.00;71.10;;;;;;6306857;28;20181;-62
2022/01/12 03:37:54;;;;;;;18.87;9.77;;;-3273.00;71.20;;;;;;6313573;28;20200;-62
2022/01/12 03:40:55;;;;;;;16.80;8.77;;;-3272.90;71.40;;;;;;6357320;28;20170;-62
2022/01/12 03:43:58;;;;;;;16.70;8.23;;;-3272.90;71.70;;;;;;6357367;28;20196;-62
2022/01/12 03:46:59;;;;;;;15.93;9.20;;;-3272.90;71.50;;;;;;6316204;28;20223;-60
2022/01/12 03:50:00;;;;;;;18.57;8.87;;;-3272.80;71.70;;;;;;6335134;28;20598;-61
2022/01/12 03:53:01;;;;;;;17.23;9.00;;;-3272.80;71.70;;;;;;6297828;28;20226;-62
2022/01/12 03:56:03;;;;;;;14.57;8.00;;;-3272.80;72.00;;;;;;6311118;28;20190;-62
2022/01/12 03:59:06;;;;;;;15.57;7.37;;;-3272.70;72.30;;;;;;6294950;28;20189;-62
2022/01/12 04:02:06;;;;;;;14.20;8.13;;;-3272.80;72.20;;;;;;6345209;28;20176;-62
2022/01/12 04:08:23;;;;;;;13.60;8.17;;;-3272.80;72.10;;;;;;6327785;28;20215;-63
2022/01/12 04:11:27;;;;;;;14.87;8.43;;;-3272.70;72.50;;;;;;6315907;28;20189;-63
2022/01/12 04:14:28;;;;;;;13.00;7.27;;;-3272.70;72.90;;;;;;6311721;28;20189;-63
2022/01/12 04:17:29;;;;;;;16.77;8.10;;;-3272.60;73.00;;;;;;6299502;28;20281;-64
2022/01/12 04:20:30;;;;;;;13.30;8.77;;;-3272.70;73.30;;;;;;6308656;28;20236;-63
2022/01/12 04:23:31;;;;;;;12.50;7.20;;;-3272.60;73.50;;;;;;6310482;28;20186;-63
2022/01/12 04:26:32;;;;;;;14.97;7.93;;;-3272.60;73.50;;;;;;6343922;28;20208;-63
2022/01/12 04:29:33;;;;;;;14.10;8.37;;;-3272.60;73.20;;;;;;6324569;28;20196;-63
2022/01/12 04:32:41;;;;;;;13.53;7.50;;;-3272.50;73.10;;;;;;6341187;28;20180;-64
2022/01/12 04:35:51;;;;;;;16.53;7.90;;;-3272.50;73.20;;;;;;6332270;28;20198;-63
2022/01/12 04:38:51;;;;;;;12.83;7.33;;;-3272.50;73.20;;;;;;6343539;28;20209;-64
2022/01/12 04:41:53;;;;;;;15.70;8.20;;;-3272.50;73.50;;;;;;6311734;28;20245;-63
2022/01/12 04:45:01;;;;;;;13.83;7.33;;;-3272.40;73.70;;;;;;6330517;28;20308;-63
2022/01/12 04:51:10;;;;;;;14.50;6.80;;;-3272.50;73.50;;;;;;6322168;28;20619;-63
2022/01/12 04:54:11;;;;;;;12.13;7.63;;;-3272.40;73.30;;;;;;6333963;28;20625;-63
2022/01/12 04:57:12;;;;;;;17.93;7.87;;;-3272.40;73.60;;;;;;6330498;28;20716;-63
2022/01/12 05:00:16;;;;;;;14.00;7.63;;;-3272.40;73.90;;;;;;6319143;28;20256;-62
2022/01/12 05:06:51;;;;;;;14.27;9.17;;;-3272.40;74.10;;;;;;6299883;28;20647;-63
2022/01/12 05:13:05;;;;;;;15.63;7.43;;;-3272.30;74.20;;;;;;6334521;28;20647;-62
2022/01/12 05:16:06;;;;;;;14.40;7.83;;;-3272.30;74.30;;;;;;6289500;27;20708;-63
2022/01/12 05:19:07;;;;;;;13.20;7.63;;;-3272.30;74.50;;;;;;6317781;28;20224;-63
2022/01/12 05:22:08;;;;;;;15.60;8.20;;;-3272.30;74.70;;;;;;6308519;28;20650;-64
2022/01/12 05:25:10;;;;;;;12.70;7.57;;;-3272.30;74.40;;;;;;6292686;28;20676;-62
2022/01/12 05:28:11;;;;;;;14.53;7.83;;;-3272.20;74.60;;;;;;6308838;28;20229;-63
2022/01/12 05:31:13;;;;;;;18.10;8.57;;;-3272.20;74.70;;;;;;6305426;28;20187;-62
2022/01/12 05:34:15;;;;;;;10.73;6.80;;;-3272.20;74.90;;;;;;6339571;28;20213;-63
2022/01/12 05:37:15;;;;;;;14.47;8.87;;;-3272.20;74.70;;;;;;6333261;28;20625;-63
2022/01/12 05:40:17;;;;;;;17.07;8.57;;;-3272.20;74.70;;;;;;6332557;28;20255;-63
2022/01/12 05:43:24;;;;;;;14.57;7.47;;;-3272.20;74.80;;;;;;6330557;28;20630;-63
2022/01/12 05:46:27;;;;;;;16.03;8.40;;;-3272.10;74.90;;;;;;6326668;28;20628;-63
2022/01/12 05:49:34;;;;;;;12.50;7.20;;;-3272.00;75.00;;;;;;6312674;28;20598;-61
2022/01/12 05:52:36;;;;;;;15.50;7.83;;;-3272.10;75.10;;;;;;6312692;28;20666;-62
2022/01/12 05:55:37;;;;;;;16.10;8.33;;;-3272.20;75.30;;;;;;6343681;28;20591;-60
2022/01/12 05:58:38;;;;;;;15.00;7.63;;;-3272.00;75.40;;;;;;6312005;28;20204;-60
2022/01/12 06:01:39;;;;;;;20.60;9.33;;;-3272.00;75.50;;;;;;6312211;28;20228;-62
2022/01/12 06:04:41;;;;;;;15.40;8.20;;;-3272.10;75.40;;;;;;6310702;28;20636;-61
2022/01/12 06:07:43;;;;;;;11.53;7.33;;;-3272.10;75.40;;;;;;6330529;28;20228;-60
2022/01/12 06:10:44;;;;;;;13.53;7.23;;;-3272.00;75.40;;;;;;6327178;28;20608;-61
2022/01/12 06:13:45;;;;;;;13.33;7.17;;;-3272.00;75.30;;;;;;6322075;28;20615;-61
2022/01/12 06:16:46;;;;;;;11.77;6.90;;;-3272.00;75.40;;;;;;6320371;28;20224;-61
2022/01/12 06:19:47;;;;;;;14.60;8.03;;;-3272.10;75.50;;;;;;6324104;28;20627;-60
2022/01/12 06:23:00;;;;;;;15.90;8.50;;;-3272.20;75.20;;;;;;6320952;28;20614;-60
2022/01/12 06:26:01;;;;;;;16.53;8.67;;;-3272.10;75.40;;;;;;6317961;28;20670;-61
2022/01/12 06:32:12;;;;;;;14.57;7.87;;;-3272.20;75.50;;;;;;6332030;28;20646;-61
2022/01/12 06:35:12;;;;;;;14.90;8.63;;;-3272.20;75.30;;;;;;6290587;28;20631;-60
2022/01/12 06:38:13;;;;;;;11.83;7.27;;;-3272.20;75.30;;;;;;6275189;28;20201;-60
2022/01/12 06:41:15;;;;;;;14.23;7.70;;;-3272.10;75.40;;;;;;6318949;28;20193;-60
2022/01/12 06:44:20;;;;;;;13.20;7.87;;;-3272.10;75.50;;;;;;6341458;28;20242;-60
2022/01/12 06:47:21;;;;;;;14.90;8.07;;;-3272.10;75.60;;;;;;6312649;28;20651;-63
2022/01/12 06:50:22;;;;;;;16.53;7.87;;;-3272.10;75.60;;;;;;6326266;28;20613;-63
2022/01/12 06:53:23;;;;;;;13.90;8.73;;;-3272.10;75.80;;;;;;6332123;28;20625;-63
2022/01/12 06:56:24;;;;;;;13.90;7.93;;;-3272.10;75.80;;;;;;6297379;28;20608;-63
2022/01/12 06:59:27;;;;;;;16.67;8.47;;;-3272.20;75.90;;;;;;6290880;28;20596;-62
2022/01/12 07:02:31;;;;;;;14.73;8.57;;;-3272.20;76.00;;;;;;6294248;28;20216;-63
2022/01/12 07:05:32;;;;;;;16.63;8.23;;;-3272.20;75.90;;;;;;6322386;28;20646;-63
2022/01/12 07:08:34;;;;;;;15.43;9.50;;;-3272.20;75.80;;;;;;6308960;28;20219;-64
2022/01/12 07:11:36;;;;;;;12.73;7.17;;;-3272.20;75.80;;;;;;6321597;28;21171;-63
2022/01/12 07:14:47;;;;;;;14.37;7.83;;;-3272.20;75.60;;;;;;6290153;28;20623;-63
2022/01/12 07:17:49;;;;;;;12.63;7.77;;;-3272.20;75.60;;;;;;6299710;28;20698;-64
2022/01/12 07:20:50;;;;;;;13.17;7.40;;;-3272.20;75.40;;;;;;6272747;28;20655;-64
2022/01/12 07:23:54;;;;;;;13.57;8.83;;;-3272.20;75.40;;;;;;6289131;28;20204;-64
2022/01/12 07:26:55;;;;;;;12.83;7.77;;;-3272.20;75.40;;;;;;6289814;28;20236;-63
2022/01/12 07:29:56;;;;;;;17.33;8.47;;;-3272.20;75.40;;;;;;6287123;28;20697;-63
2022/01/12 07:32:57;;;;;;;14.20;7.93;;;-3272.20;75.50;;;;;;6287744;28;20188;-64
2022/01/12 07:35:58;;;;;;;15.97;7.80;;;-3272.20;75.30;;;;;;6288844;28;20215;-64
2022/01/12 07:38:59;;;;;;;15.07;7.67;;;-3272.20;75.50;;;;;;6309546;28;20204;-63
2022/01/12 07:42:00;;;;;;;13.80;7.50;;;-3272.20;75.60;;;;;;6300189;28;20243;-63
2022/01/12 07:45:03;;;;;;;13.47;7.57;;;-3272.20;75.70;;;;;;6310685;28;20203;-63
2022/01/12 07:48:05;;;;;;;16.07;9.00;;;-3272.30;75.80;;;;;;6335775;28;20688;-63
2022/01/12 07:51:06;;;;;;;12.57;8.13;;;-3272.30;75.70;;;;;;6321568;28;20193;-63
2022/01/12 07:54:06;;;;;;;14.07;7.80;;;-3272.40;75.90;;;;;;6307962;28;20607;-63
2022/01/12 07:57:07;;;;;;;13.63;6.90;;;-3272.40;76.10;;;;;;6340334;28;20203;-63
2022/01/12 08:00:08;;;;;;;18.47;8.43;;;-3272.50;76.00;;;;;;6327133;28;20207;-63
2022/01/12 08:03:14;;;;;;;13.47;8.23;;;-3272.60;76.00;;;;;;6337893;28;20298;-63
2022/01/12 08:06:15;;;;;;;15.93;8.10;;;-3272.60;75.90;;;;;;6291037;28;20198;-63
2022/01/12 08:09:16;;;;;;;14.70;8.47;;;-3272.70;76.00;;;;;;6307411;28;20337;-63
2022/01/12 08:12:17;;;;;;;12.80;8.27;;;-3272.80;75.90;;;;;;6320684;28;20198;-62
2022/01/12 08:15:18;;;;;;;15.70;8.27;;;-3272.70;76.00;;;;;;6328001;28;20229;-62
2022/01/12 08:18:19;;;;;;;14.17;7.67;;;-3272.80;76.00;;;;;;6329503;28;20192;-63
2022/01/12 08:21:21;;;;;;;15.23;8.67;;;-3272.90;75.80;;;;;;6278101;28;20251;-63
2022/01/12 08:24:22;;;;;;;16.67;8.67;;;-3273.00;75.90;;;;;;6294887;28;20224;-62
2022/01/12 08:27:23;;;;;;;17.10;9.20;;;-3273.00;75.60;;;;;;6311857;28;20217;-62
2022/01/12 08:30:29;;;;;;;18.80;9.40;;;-3273.20;75.40;;;;;;6278915;28;20214;-63
2022/01/12 08:33:29;;;;;;;16.27;7.77;;;-3273.20;74.90;;;;;;6296254;28;20205;-62
2022/01/12 08:36:30;;;;;;;14.10;7.60;;;-3273.30;73.90;;;;;;6299806;28;20190;-63
2022/01/12 08:39:31;;;;;;;17.33;8.10;;;-3273.40;73.60;;;;;;6284381;28;20291;-63
2022/01/12 08:42:32;;;;;;;13.70;8.37;;;-3273.50;73.30;;;;;;6303737;28;20253;-63
2022/01/12 08:45:33;;;;;;;17.27;9.07;;;-3273.60;72.70;;;;;;6312530;28;20231;-63
2022/01/12 08:48:34;;;;;;;12.90;8.50;;;-3273.70;72.30;;;;;;6324553;28;20230;-63
2022/01/12 08:51:36;;;;;;;13.47;7.93;;;-3273.80;72.10;;;;;;6315097;28;20234;-63
2022/01/12 08:54:37;;;;;;;15.33;7.83;;;-3273.80;72.20;;;;;;6303285;28;20182;-63
2022/01/12 08:57:38;;;;;;;15.60;8.80;;;-3273.90;71.90;;;;;;6295426;28;20205;-63
2022/01/12 09:00:39;;;;;;;14.97;8.70;;;-3274.00;71.80;;;;;;6298362;28;20204;-63
2022/01/12 09:03:40;;;;;;;18.87;8.87;;;-3274.10;71.50;;;;;;6322539;28;20678;-63
2022/01/12 09:06:41;;;;;;;17.93;9.33;;;-3274.20;71.50;;;;;;6289078;28;20323;-63
2022/01/12 09:09:42;;;;;;;17.77;10.50;;;-3274.30;71.20;;;;;;6324507;28;20196;-63
2022/01/12 09:12:43;;;;;;;17.40;9.63;;;-3274.40;70.90;;;;;;6321922;28;20192;-63
2022/01/12 09:15:44;;;;;;;16.13;9.37;;;-3274.50;70.90;;;;;;6316951;28;20197;-63
2022/01/12 09:18:45;;;;;;;16.90;10.07;;;-3274.60;70.90;;;;;;6280411;28;20310;-63
2022/01/12 09:21:45;;;;;;;15.30;9.23;;;-3274.70;70.60;;;;;;6303742;28;20268;-63
2022/01/12 09:24:47;;;;;;;16.50;9.50;;;-3274.80;70.60;;;;;;6274328;28;20296;-63
2022/01/12 09:27:48;;;;;;;15.67;9.10;;;-3274.80;70.50;;;;;;6278521;28;20313;-63
2022/01/12 09:30:48;;;;;;;17.50;10.70;;;-3274.90;70.30;;;;;;6279935;28;20197;-63
2022/01/12 09:33:50;;;;;;;17.87;9.67;;;-3275.00;70.10;;;;;;6257458;28;20208;-63
2022/01/12 09:36:51;;;;;;;18.83;10.57;;;-3275.00;70.10;;;;;;6257419;28;20219;-63
2022/01/12 09:39:52;;;;;;;17.27;10.10;;;-3275.20;69.60;;;;;;6257454;28;20209;-63
2022/01/12 09:42:53;;;;;;;18.57;9.30;;;-3275.40;68.90;;;;;;6270510;28;20197;-63
2022/01/12 09:45:54;;;;;;;18.03;9.60;;;-3275.50;68.70;;;;;;6281108;28;20224;-63
2022/01/12 09:48:59;;;;;;;16.70;9.73;;;-3275.70;67.90;;;;;;6273681;28;20286;-63
2022/01/12 09:52:00;;;;;;;21.23;11.40;;;-3275.70;68.40;;;;;;6281130;28;20197;-63
2022/01/12 09:55:01;;;;;;;18.50;10.90;;;-3275.80;68.10;;;;;;6241088;28;20201;-63
2022/01/12 09:58:02;;;;;;;17.10;10.77;;;-3275.90;67.70;;;;;;6258544;28;20198;-63
2022/01/12 10:01:03;;;;;;;20.60;11.10;;;-3276.00;67.20;;;;;;6259461;28;20281;-63
2022/01/12 10:04:09;;;;;;;21.60;11.87;;;-3276.20;66.90;;;;;;6259873;28;20196;-63
2022/01/12 10:07:11;;;;;;;21.00;11.47;;;-3276.20;66.60;;;;;;6258835;28;20253;-63
2022/01/12 10:10:17;;;;;;;16.03;9.90;;;-3276.20;67.00;;;;;;6255191;28;20198;-63
2022/01/12 10:13:25;;;;;;;17.00;11.40;;;-3276.30;66.50;;;;;;6256040;28;20202;-63
2022/01/12 10:16:26;;;;;;;17.83;9.77;;;-3276.30;65.70;;;;;;6260972;28;20278;-63
2022/01/12 10:19:28;;;;;;;18.10;10.53;;;-3276.40;65.80;;;;;;6256064;28;20275;-63
2022/01/12 10:22:29;;;;;;;19.17;10.47;;;-3276.40;66.10;;;;;;6281708;28;20258;-63
2022/01/12 10:25:30;;;;;;;18.07;10.67;;;-3276.50;65.20;;;;;;6272091;28;20196;-63
2022/01/12 10:28:34;;;;;;;21.07;10.63;;;-3276.70;64.50;;;;;;6322825;28;20233;-63
2022/01/12 10:31:57;;;;;;;21.80;10.23;;;-3276.70;64.10;;;;;;6257708;28;20221;-63
2022/01/12 10:35:00;;;;;;;15.70;9.83;;;-3276.70;64.40;;;;;;6305368;28;20197;-63
2022/01/12 10:38:16;;;;;;;16.93;11.33;;;0.00;64.10;;;;;;6270582;28;20198;-63
2022/01/12 10:41:17;;;;;;;17.80;11.37;;;0.00;63.80;;;;;;6309827;28;20228;-63
2022/01/12 10:44:22;;;;;;;19.63;11.07;;;0.10;63.90;;;;;;6302914;28;20201;-63
2022/01/12 10:47:27;;;;;;;20.03;10.13;;;0.10;63.90;;;;;;6306115;28;20213;-63
2022/01/12 10:50:28;;;;;;;17.07;9.80;;;0.20;62.90;;;;;;6319993;28;20204;-63
2022/01/12 10:53:31;;;;;;;15.43;10.93;;;0.20;63.10;;;;;;6273356;28;20500;-63
2022/01/12 10:56:32;;;;;;;16.90;10.70;;;0.40;61.50;;;;;;6258741;28;20217;-63
2022/01/12 10:59:37;;;;;;;18.00;10.50;;;0.60;60.70;;;;;;6281519;28;20188;-63
2022/01/12 11:02:39;;;;;;;16.10;10.93;;;0.60;60.10;;;;;;6283665;28;20212;-63
2022/01/12 11:05:40;;;;;;;19.50;10.50;;;0.60;60.60;;;;;;6332666;28;20181;-63
2022/01/12 11:08:43;;;;;;;23.00;10.27;;;0.70;59.50;;;;;;6281492;28;20213;-63
2022/01/12 11:11:44;;;;;;;17.13;8.47;;;0.70;60.10;;;;;;6280867;28;20185;-63
2022/01/12 11:14:45;;;;;;;16.03;8.73;;;0.80;59.50;;;;;;6274005;28;20224;-63
2022/01/12 11:17:48;;;;;;;15.57;8.67;;;0.80;58.50;;;;;;6277103;28;20202;-63
2022/01/12 11:20:51;;;;;;;13.63;8.73;;;0.90;58.90;;;;;;6273523;28;20241;-63
2022/01/12 11:23:57;;;;;;;13.50;7.80;;;0.90;59.40;;;;;;6273156;28;20284;-62
2022/01/12 11:26:58;;;;;;;13.03;7.47;;;1.00;58.20;;;;;;6325023;28;20922;-61
2022/01/12 11:29:59;;;;;;;14.90;8.87;;;1.10;58.80;;;;;;6314915;28;20220;-61
2022/01/12 11:33:03;;;;;;;13.83;8.00;;;1.30;58.80;;;;;;6315001;28;20220;-55
2022/01/12 11:36:11;;;;;;;11.40;7.27;;;1.40;57.50;;;;;;6294360;28;20197;-59
2022/01/12 11:39:15;;;;;;;11.07;6.90;;;1.80;56.70;;;;;;6287124;28;20226;-59
2022/01/12 11:42:18;;;;;;;13.07;8.80;;;1.80;56.10;;;;;;6278736;28;20212;-58
2022/01/12 11:45:20;;;;;;;14.17;7.07;;;2.00;55.70;;;;;;6310829;28;20276;-57
2022/01/12 11:48:32;;;;;;;13.47;7.07;;;2.00;55.30;;;;;;6314877;28;20240;-56
2022/01/12 11:51:43;;;;;;;10.83;7.77;;;2.30;55.40;;;;;;6306372;28;20194;-57
2022/01/12 11:54:47;;;;;;;15.47;7.37;;;2.40;53.90;;;;;;6297106;28;20483;-57
2022/01/12 11:57:52;;;;;;;17.23;7.83;;;2.60;54.30;;;;;;6294493;28;20651;-56
2022/01/12 12:00:53;;;;;;;14.47;7.70;;;2.90;53.70;;;;;;6296456;28;20189;-56
2022/01/12 12:04:02;;;;;;;12.17;7.63;;;3.10;52.10;;;;;;6285186;28;20267;-56
2022/01/12 12:07:06;;;;;;;12.53;7.03;;;3.10;51.20;;;;;;6316832;28;20245;-55
2022/01/12 12:10:12;;;;;;;10.87;7.03;;;3.20;51.00;;;;;;6297355;28;20268;-55
2022/01/12 12:13:13;;;;;;;12.03;7.13;;;3.30;51.00;;;;;;6312916;28;20185;-57
2022/01/12 12:16:14;;;;;;;10.10;6.77;;;3.30;52.10;;;;;;6285354;28;20199;-57
2022/01/12 12:19:14;;;;;;;13.63;7.83;;;3.60;50.80;;;;;;6302117;28;20193;-59
2022/01/12 12:22:25;;;;;;;12.33;7.07;;;3.80;49.40;;;;;;6284603;28;20248;-59
2022/01/12 12:25:31;;;;;;;11.10;6.10;;;3.90;49.50;;;;;;6279695;28;20197;-59
2022/01/12 12:28:31;;;;;;;12.37;6.93;;;4.00;49.80;;;;;;6277750;28;20229;-59
2022/01/12 12:31:33;;;;;;;12.87;8.43;;;4.10;49.10;;;;;;6264723;28;20197;-59
2022/01/12 12:34:35;;;;;;;11.87;6.80;;;4.30;47.80;;;;;;6280507;28;20623;-58
2022/01/12 12:37:42;;;;;;;12.10;7.37;;;4.40;48.10;;;;;;6285015;28;20200;-59
2022/01/12 12:40:49;;;;;;;8.20;6.07;;;4.60;47.50;;;;;;6285971;28;20189;-59
2022/01/12 12:43:49;;;;;;;17.20;8.87;;;4.70;47.50;;;;;;6285107;28;20234;-59
2022/01/12 12:46:52;;;;;;;10.90;7.30;;;4.80;46.80;;;;;;6266493;28;20216;-57
2022/01/12 12:49:57;;;;;;;12.20;7.20;;;4.90;45.80;;;;;;6280215;28;20193;-55
2022/01/12 12:52:59;;;;;;;17.00;7.97;;;4.90;45.50;;;;;;6285204;28;20173;-57
2022/01/12 12:56:02;;;;;;;12.37;7.47;;;4.90;45.00;;;;;;6275433;28;20191;-56
2022/01/12 12:59:05;;;;;;;9.77;6.93;;;4.90;45.20;;;;;;6273321;28;20197;-57
2022/01/12 13:02:11;;;;;;;12.37;8.10;;;5.00;44.20;;;;;;6284974;28;20194;-56
2022/01/12 13:05:15;;;;;;;12.97;6.93;;;5.20;44.40;;;;;;6294481;28;20186;-56
2022/01/12 13:08:17;;;;;;;10.70;6.80;;;5.30;44.10;;;;;;6276941;28;20225;-56
2022/01/12 13:11:17;;;;;;;12.40;6.87;;;5.40;44.00;;;;;;6260013;28;20181;-56
2022/01/12 13:14:18;;;;;;;11.00;7.17;;;5.60;43.70;;;;;;6267203;28;20196;-57
2022/01/12 13:17:26;;;;;;;13.43;7.67;;;5.70;43.00;;;;;;6282973;28;20230;-53
2022/01/12 13:23:40;;;;;;;11.07;7.50;;;6.10;43.10;;;;;;6309306;28;20196;-58
2022/01/12 13:26:41;;;;;;;10.20;7.40;;;6.10;42.90;;;;;;6309025;28;20281;-57
2022/01/12 13:29:49;;;;;;;12.80;7.90;;;6.10;42.80;;;;;;6309770;28;20192;-56
2022/01/12 13:32:52;;;;;;;11.83;7.97;;;6.30;42.50;;;;;;6340956;28;20188;-55
2022/01/12 13:35:54;;;;;;;14.33;7.93;;;6.40;41.90;;;;;;6337364;28;20185;-57
2022/01/12 13:39:06;;;;;;;12.47;8.13;;;6.40;42.70;;;;;;6308916;28;20196;-57
2022/01/12 13:42:07;;;;;;;13.67;8.10;;;6.80;42.40;;;;;;6317659;28;20196;-57
2022/01/12 13:45:09;;;;;;;9.37;6.63;;;7.00;41.50;;;;;;6318068;28;20213;-57
2022/01/12 13:48:17;;;;;;;14.70;8.30;;;7.60;40.50;;;;;;6291618;28;20755;-57
2022/01/12 13:51:26;;;;;;;12.37;8.30;;;8.10;39.30;;;;;;6325712;28;20188;-56
2022/01/12 13:54:35;;;;;;;11.80;8.13;;;9.90;36.50;;;;;;6308707;28;20180;-56
2022/01/12 13:57:37;;;;;;;12.47;8.40;;;11.10;33.60;;;;;;6332557;28;20280;-57
2022/01/12 14:00:38;;;;;;;12.80;8.13;;;11.80;32.30;;;;;;6300379;28;20183;-54
2022/01/12 14:03:42;;;;;;;14.53;8.23;;;12.30;32.20;;;;;;6325138;28;20194;-57
2022/01/12 14:06:46;;;;;;;11.77;7.27;;;13.30;30.30;;;;;;6308085;28;20181;-57
2022/01/12 14:09:58;;;;;;;13.50;8.10;;;13.00;30.40;;;;;;6294661;28;20668;-57
2022/01/12 14:12:59;;;;;;;14.33;8.43;;;12.90;30.30;;;;;;6308281;28;20177;-57
2022/01/12 14:16:11;;;;;;;11.37;7.77;;;12.00;31.00;;;;;;6315046;28;20187;-56
2022/01/12 14:19:13;;;;;;;12.13;8.60;;;12.00;31.50;;;;;;6340885;28;20566;-55
2022/01/12 14:22:14;;;;;;;16.37;8.17;;;11.80;31.80;;;;;;6323536;28;20266;-57
2022/01/12 14:25:17;;;;;;;11.77;8.80;;;11.70;32.00;;;;;;6318827;28;20199;-56
2022/01/12 14:28:29;;;;;;;18.07;8.70;;;11.10;33.00;;;;;;6331036;28;20716;-56
2022/01/12 14:31:30;;;;;;;15.70;8.73;;;10.30;33.90;;;;;;6310667;28;20188;-56
2022/01/12 14:34:31;;;;;;;13.40;8.80;;;10.50;34.30;;;;;;6278494;28;20532;-59
2022/01/12 14:37:32;;;;;;;13.10;8.47;;;11.30;33.40;;;;;;6298039;28;20199;-58
2022/01/12 14:40:33;;;;;;;13.83;9.17;;;12.60;31.50;;;;;;6304124;28;20206;-58
2022/01/12 14:43:34;;;;;;;12.53;8.23;;;13.40;29.90;;;;;;6307786;28;20173;-59
2022/01/12 14:46:35;;;;;;;15.07;8.47;;;13.70;29.50;;;;;;6299735;28;20194;-59
2022/01/12 14:49:36;;;;;;;14.00;9.70;;;13.50;29.70;;;;;;6315621;28;20187;-59
2022/01/12 14:52:37;;;;;;;14.20;9.17;;;12.50;30.60;;;;;;6314993;28;20189;-59
2022/01/12 14:55:38;;;;;;;12.63;8.07;;;11.40;32.70;;;;;;6314590;28;20187;-59
2022/01/12 14:58:40;;;;;;;14.07;9.20;;;10.60;34.40;;;;;;6331217;28;20199;-59
2022/01/12 15:01:41;;;;;;;16.00;9.37;;;10.20;35.10;;;;;;6317901;28;20196;-59
2022/01/12 15:04:42;;;;;;;14.80;9.70;;;9.40;36.70;;;;;;6336926;28;20202;-59
2022/01/12 15:07:43;;;;;;;13.33;9.13;;;8.50;38.00;;;;;;6325079;28;20224;-58
2022/01/12 15:10:45;;;;;;;12.50;8.50;;;7.60;40.20;;;;;;6299258;28;20192;-59
2022/01/12 15:14:02;;;;;;;14.07;8.60;;;6.80;42.20;;;;;;6314317;28;20217;-59
2022/01/12 15:17:03;;;;;;;14.73;8.80;;;6.00;44.10;;;;;;6318502;28;20200;-58
2022/01/12 15:20:10;;;;;;;14.37;8.77;;;5.40;45.90;;;;;;6321199;28;20231;-58
2022/01/12 15:23:11;;;;;;;11.97;8.13;;;4.90;47.30;;;;;;6298729;28;20251;-58
2022/01/12 15:26:12;;;;;;;16.83;9.27;;;4.50;48.50;;;;;;6318535;28;20197;-59
2022/01/12 15:29:13;;;;;;;13.57;8.47;;;4.20;49.50;;;;;;6333822;28;20216;-58
2022/01/12 15:32:14;;;;;;;15.30;8.90;;;3.90;50.40;;;;;;6319751;28;20314;-57
2022/01/12 15:35:19;;;;;;;13.50;7.87;;;3.60;51.00;;;;;;6327438;28;20194;-57
2022/01/12 15:38:19;;;;;;;16.07;8.90;;;3.40;51.90;;;;;;6331003;28;20187;-58
2022/01/12 15:41:20;;;;;;;13.30;8.57;;;3.20;52.50;;;;;;6325625;28;20192;-58
2022/01/12 15:44:21;;;;;;;13.67;8.77;;;3.10;52.90;;;;;;6282450;28;20259;-59
2022/01/12 15:47:23;;;;;;;12.87;8.83;;;2.80;54.10;;;;;;6281580;28;20277;-58
2022/01/12 15:50:24;;;;;;;14.57;8.83;;;2.60;54.70;;;;;;6323737;28;20205;-59
2022/01/12 15:53:25;;;;;;;13.67;8.77;;;2.30;55.40;;;;;;6340719;28;20191;-58
2022/01/12 15:56:26;;;;;;;14.13;9.30;;;2.10;56.10;;;;;;6332385;28;20214;-56
2022/01/12 15:59:27;;;;;;;13.57;8.50;;;2.00;57.00;;;;;;6314183;28;20216;-58
2022/01/12 16:02:28;;;;;;;13.73;8.50;;;1.80;57.50;;;;;;6339647;28;20241;-56
2022/01/12 16:05:29;;;;;;;13.83;9.10;;;1.70;58.00;;;;;;6314945;28;20230;-56
2022/01/12 16:08:32;;;;;;;14.60;9.50;;;1.60;58.70;;;;;;6295756;28;20258;-56
2022/01/12 16:11:33;;;;;;;14.23;8.70;;;1.40;59.20;;;;;;6307749;28;20196;-56
2022/01/12 16:14:34;;;;;;;11.47;7.93;;;1.30;59.80;;;;;;6329452;28;20194;-56
2022/01/12 16:17:36;;;;;;;15.93;10.07;;;1.20;60.10;;;;;;6330630;28;20214;-55
2022/01/12 16:20:37;;;;;;;17.00;9.83;;;1.00;60.70;;;;;;6331437;28;20236;-57
2022/01/12 16:23:38;;;;;;;20.47;10.13;;;0.90;61.00;;;;;;6324933;28;20198;-57
2022/01/12 16:26:40;;;;;;;14.03;9.23;;;0.80;61.40;;;;;;6325870;28;20428;-55
2022/01/12 16:29:41;;;;;;;15.57;9.03;;;0.70;62.00;;;;;;6328782;28;20708;-57
2022/01/12 16:32:42;;;;;;;13.57;9.00;;;0.80;62.00;;;;;;6322632;28;20191;-56